createdAt,value
2022-08-29T00:01:33.441Z,99.90
2022-08-29T00:04:01.848Z,99.90
2022-08-29T00:06:30.036Z,99.90
2022-08-29T00:08:58.865Z,99.90
2022-08-29T00:11:26.563Z,99.90
2022-08-29T00:13:54.284Z,99.90
2022-08-29T00:16:21.987Z,99.90
2022-08-29T00:18:49.675Z,99.90
2022-08-29T00:21:17.730Z,99.90
2022-08-29T00:23:45.902Z,99.90
2022-08-29T00:26:14.724Z,99.90
2022-08-29T00:28:42.406Z,99.90
2022-08-29T00:31:10.084Z,99.90
2022-08-29T00:33:39.208Z,99.90
2022-08-29T00:36:08.221Z,99.90
2022-08-29T00:38:36.195Z,99.90
2022-08-29T00:41:04.825Z,99.90
2022-08-29T00:43:33.886Z,99.90
2022-08-29T00:46:14.783Z,99.90
2022-08-29T00:48:43.754Z,99.90
2022-08-29T00:51:15.380Z,99.90
2022-08-29T00:53:45.299Z,99.90
2022-08-29T00:56:15.115Z,99.90
2022-08-29T00:58:53.903Z,99.90
2022-08-29T01:04:06.368Z,99.40
2022-08-29T01:06:40.582Z,99.40
2022-08-29T01:09:09.878Z,99.30
2022-08-29T01:11:59.173Z,99.20
2022-08-29T01:14:28.399Z,98.90
2022-08-29T01:16:58.724Z,98.90
2022-08-29T01:19:46.294Z,98.80
2022-08-29T01:22:38.442Z,98.70
2022-08-29T01:25:08.919Z,98.60
2022-08-29T01:27:39.187Z,98.50
2022-08-29T01:30:07.891Z,98.40
2022-08-29T01:32:37.391Z,98.30
2022-08-29T01:35:05.922Z,98.30
2022-08-29T01:37:34.922Z,97.60
2022-08-29T01:40:02.782Z,97.80
2022-08-29T01:42:36.497Z,97.70
2022-08-29T01:45:10.043Z,97.50
2022-08-29T01:47:39.183Z,97.70
2022-08-29T01:50:10.810Z,97.60
2022-08-29T01:52:38.526Z,97.50
2022-08-29T01:55:06.771Z,97.40
2022-08-29T01:57:34.606Z,96.30
2022-08-29T02:00:02.911Z,96.80
2022-08-29T02:02:30.694Z,96.20
2022-08-29T02:05:00.094Z,96.90
2022-08-29T02:07:29.789Z,96.90
2022-08-29T02:09:57.625Z,96.50
2022-08-29T02:12:26.649Z,96.90
2022-08-29T02:14:54.450Z,96.80
2022-08-29T02:17:22.326Z,97.30
2022-08-29T02:19:50.169Z,97.00
2022-08-29T02:22:18.756Z,97.10
2022-08-29T02:24:46.411Z,96.80
2022-08-29T02:27:14.247Z,96.90
2022-08-29T02:29:42.763Z,97.40
2022-08-29T02:32:15.572Z,96.90
2022-08-29T02:34:47.764Z,97.10
2022-08-29T02:37:16.969Z,97.20
2022-08-29T02:39:44.841Z,97.20
2022-08-29T02:42:12.681Z,96.90
2022-08-29T02:44:40.612Z,96.60
2022-08-29T02:47:10.171Z,96.10
2022-08-29T02:49:39.458Z,95.80
2022-08-29T02:52:08.944Z,95.60
2022-08-29T02:54:36.772Z,96.00
2022-08-29T02:57:05.421Z,95.90
2022-08-29T02:59:33.250Z,96.10
2022-08-29T03:02:01.365Z,96.40
2022-08-29T03:04:29.114Z,96.40
2022-08-29T03:06:56.914Z,96.30
2022-08-29T03:09:25.254Z,96.40
2022-08-29T03:11:56.727Z,96.10
2022-08-29T03:14:24.906Z,96.10
2022-08-29T03:16:52.918Z,96.00
2022-08-29T03:19:20.749Z,95.00
2022-08-29T03:22:02.495Z,95.00
2022-08-29T03:24:31.932Z,95.40
2022-08-29T03:27:03.992Z,95.40
2022-08-29T03:29:47.691Z,95.60
2022-08-29T03:32:15.560Z,94.90
2022-08-29T03:34:43.360Z,94.70
2022-08-29T03:37:12.039Z,94.50
2022-08-29T03:39:41.264Z,94.80
2022-08-29T03:42:42.956Z,95.10
2022-08-29T03:45:12.993Z,95.00
2022-08-29T03:47:41.972Z,94.20
2022-08-29T03:50:11.358Z,93.80
2022-08-29T03:52:41.004Z,94.00
2022-08-29T03:55:09.392Z,93.90
2022-08-29T03:57:38.067Z,93.50
2022-08-29T04:00:12.896Z,93.10
2022-08-29T04:02:41.916Z,93.60
2022-08-29T04:05:13.308Z,94.30
2022-08-29T04:07:48.904Z,93.60
2022-08-29T04:10:20.344Z,93.30
2022-08-29T04:12:51.296Z,93.20
2022-08-29T04:15:24.076Z,93.90
2022-08-29T04:17:54.628Z,93.60
2022-08-29T04:20:28.388Z,94.10
2022-08-29T04:22:59.519Z,94.00
2022-08-29T04:25:28.693Z,93.90
2022-08-29T04:27:57.036Z,93.70
2022-08-29T04:30:31.859Z,93.50
2022-08-29T04:33:00.131Z,93.90
2022-08-29T04:35:28.073Z,93.90
2022-08-29T04:38:15.757Z,93.60
2022-08-29T04:40:45.101Z,94.10
2022-08-29T04:43:14.144Z,94.10
2022-08-29T04:45:43.097Z,93.40
2022-08-29T04:48:11.173Z,93.90
2022-08-29T04:50:39.469Z,93.80
2022-08-29T04:53:07.165Z,93.80
2022-08-29T04:55:35.869Z,93.00
2022-08-29T04:58:04.311Z,93.50
2022-08-29T05:00:32.279Z,93.70
2022-08-29T05:03:00.635Z,92.70
2022-08-29T05:05:33.015Z,92.90
2022-08-29T05:08:08.276Z,93.80
2022-08-29T05:10:36.075Z,93.60
2022-08-29T05:13:04.541Z,93.10
2022-08-29T05:15:32.326Z,92.60
2022-08-29T05:20:47.769Z,92.60
2022-08-29T05:23:25.668Z,92.70
2022-08-29T05:25:59.150Z,92.60
2022-08-29T05:28:29.114Z,93.10
2022-08-29T05:31:01.294Z,93.00
2022-08-29T05:33:29.621Z,92.70
2022-08-29T05:36:01.782Z,93.00
2022-08-29T05:38:44.967Z,92.60
2022-08-29T05:41:13.517Z,92.50
2022-08-29T05:44:01.090Z,92.40
2022-08-29T05:46:30.048Z,92.20
2022-08-29T05:49:01.815Z,92.60
2022-08-29T05:51:29.817Z,92.10
2022-08-29T05:53:57.881Z,91.60
2022-08-29T05:56:26.789Z,91.90
2022-08-29T05:58:56.176Z,92.50
2022-08-29T06:01:25.810Z,91.60
2022-08-29T06:03:54.469Z,91.60
2022-08-29T06:06:24.958Z,91.60
2022-08-29T06:08:53.236Z,89.80
2022-08-29T06:11:22.565Z,89.30
2022-08-29T06:13:50.705Z,90.60
2022-08-29T06:16:20.086Z,90.20
2022-08-29T06:18:50.882Z,88.60
2022-08-29T06:21:18.936Z,87.10
2022-08-29T06:23:48.030Z,89.80
2022-08-29T06:26:16.825Z,87.10
2022-08-29T06:28:48.739Z,89.70
2022-08-29T06:31:18.452Z,88.90
2022-08-29T06:33:46.370Z,90.20
2022-08-29T06:36:14.463Z,90.50
2022-08-29T06:38:42.228Z,90.90
2022-08-29T06:41:13.315Z,91.10
2022-08-29T06:43:41.679Z,91.00
2022-08-29T06:46:10.703Z,91.20
2022-08-29T06:48:38.527Z,91.50
2022-08-29T06:51:06.286Z,91.60
2022-08-29T06:53:37.351Z,91.50
2022-08-29T06:56:11.289Z,91.60
2022-08-29T06:58:39.676Z,91.40
2022-08-29T07:01:27.492Z,91.90
2022-08-29T07:04:06.865Z,88.40
2022-08-29T07:06:43.832Z,90.80
2022-08-29T07:09:12.545Z,88.90
2022-08-29T07:11:43.156Z,87.50
2022-08-29T07:14:12.474Z,88.20
2022-08-29T07:16:40.912Z,87.50
2022-08-29T07:19:09.324Z,88.20
2022-08-29T07:21:37.505Z,85.80
2022-08-29T07:24:05.862Z,87.40
2022-08-29T07:26:40.232Z,86.10
2022-08-29T07:29:10.761Z,87.50
2022-08-29T07:31:40.019Z,84.90
2022-08-29T07:34:09.107Z,85.60
2022-08-29T07:36:37.358Z,85.00
2022-08-29T07:39:08.414Z,86.70
2022-08-29T07:41:36.605Z,85.60
2022-08-29T07:44:04.824Z,83.90
2022-08-29T07:46:32.839Z,83.10
2022-08-29T07:49:02.992Z,87.10
2022-08-29T07:51:31.023Z,84.80
2022-08-29T07:53:58.997Z,85.20
2022-08-29T07:56:31.550Z,81.20
2022-08-29T07:59:02.445Z,85.00
2022-08-29T08:01:30.710Z,87.60
2022-08-29T08:03:58.928Z,86.80
2022-08-29T08:06:31.363Z,84.20
2022-08-29T08:09:06.828Z,83.70
2022-08-29T08:11:39.224Z,85.10
2022-08-29T08:14:07.567Z,81.90
2022-08-29T08:16:37.562Z,79.20
2022-08-29T08:19:05.717Z,79.60
2022-08-29T08:21:35.047Z,76.30
2022-08-29T08:24:03.982Z,80.20
2022-08-29T08:26:35.165Z,77.90
2022-08-29T08:29:04.004Z,75.40
2022-08-29T08:31:32.487Z,78.70
2022-08-29T08:34:01.583Z,76.60
2022-08-29T08:36:31.622Z,75.30
2022-08-29T08:39:02.082Z,83.80
2022-08-29T08:41:53.356Z,83.80
2022-08-29T08:44:38.603Z,82.60
2022-08-29T08:47:11.493Z,79.60
2022-08-29T08:49:48.414Z,79.90
2022-08-29T08:52:26.447Z,81.50
2022-08-29T08:54:56.250Z,80.00
2022-08-29T08:57:51.572Z,80.20
2022-08-29T09:00:34.307Z,78.50
2022-08-29T09:03:51.071Z,78.40
2022-08-29T09:06:38.456Z,81.30
2022-08-29T09:09:18.975Z,76.70
2022-08-29T09:11:59.840Z,75.70
2022-08-29T09:14:47.468Z,79.80
2022-08-29T09:17:21.505Z,81.40
2022-08-29T09:19:52.793Z,79.50
2022-08-29T09:22:25.801Z,76.80
2022-08-29T09:25:16.691Z,82.00
2022-08-29T09:27:51.284Z,78.80
2022-08-29T09:30:25.019Z,83.00
2022-08-29T09:32:59.980Z,84.10
2022-08-29T09:35:37.784Z,82.20
2022-08-29T09:38:07.500Z,84.10
2022-08-29T09:40:47.972Z,84.60
2022-08-29T09:43:24.226Z,84.70
2022-08-29T09:46:04.544Z,83.40
2022-08-29T09:48:35.572Z,84.80
2022-08-29T09:51:12.719Z,83.30
2022-08-29T09:53:40.680Z,85.40
2022-08-29T09:56:09.912Z,85.70
2022-08-29T09:58:40.352Z,83.30
2022-08-29T10:01:11.692Z,82.10
2022-08-29T10:03:42.774Z,83.10
2022-08-29T10:06:16.396Z,83.40
2022-08-29T10:08:55.856Z,82.40
2022-08-29T10:11:30.411Z,84.20
2022-08-29T10:14:04.126Z,84.10
2022-08-29T10:16:40.494Z,83.70
2022-08-29T10:19:19.156Z,85.00
2022-08-29T10:22:03.980Z,86.30
2022-08-29T10:24:39.722Z,85.60
2022-08-29T10:27:27.116Z,85.00
2022-08-29T10:30:06.455Z,86.10
2022-08-29T10:32:55.036Z,84.20
2022-08-29T10:35:34.695Z,86.70
2022-08-29T10:38:23.183Z,87.00
2022-08-29T10:41:11.173Z,86.20
2022-08-29T10:43:51.184Z,85.50
2022-08-29T10:46:34.313Z,87.00
2022-08-29T10:49:17.025Z,86.10
2022-08-29T10:51:57.078Z,86.20
2022-08-29T10:54:44.988Z,86.60
2022-08-29T10:57:18.027Z,86.00
2022-08-29T11:00:05.630Z,86.20
2022-08-29T11:02:38.516Z,86.70
2022-08-29T11:05:11.742Z,87.20
2022-08-29T11:07:53.498Z,87.70
2022-08-29T11:10:24.095Z,87.50
2022-08-29T11:12:57.962Z,87.90
2022-08-29T11:15:29.437Z,88.00
2022-08-29T11:18:02.570Z,88.40
2022-08-29T11:20:33.777Z,88.60
2022-08-29T11:23:07.701Z,88.80
2022-08-29T11:25:36.733Z,89.00
2022-08-29T11:28:09.787Z,88.70
2022-08-29T11:30:57.656Z,88.90
2022-08-29T11:33:37.596Z,89.70
2022-08-29T11:36:26.303Z,89.90
2022-08-29T11:39:01.411Z,90.10
2022-08-29T11:41:31.181Z,90.20
2022-08-29T11:44:18.734Z,90.30
2022-08-29T11:46:52.157Z,90.40
2022-08-29T11:49:43.592Z,90.80
2022-08-29T11:52:18.936Z,91.10
2022-08-29T11:54:51.882Z,90.90
2022-08-29T11:57:27.476Z,91.10
2022-08-29T12:00:00.796Z,91.00
2022-08-29T12:02:48.749Z,91.10
2022-08-29T12:05:36.278Z,91.20
2022-08-29T12:08:26.274Z,91.40
2022-08-29T12:10:56.142Z,91.30
2022-08-29T12:13:36.091Z,91.60
2022-08-29T12:16:10.005Z,91.50
2022-08-29T12:18:47.129Z,91.50
2022-08-29T12:21:27.869Z,91.60
2022-08-29T12:23:55.967Z,91.70
2022-08-29T12:26:36.752Z,91.70
2022-08-29T12:29:10.577Z,91.80
2022-08-29T12:32:02.460Z,91.80
2022-08-29T12:34:49.113Z,91.80
2022-08-29T12:37:31.400Z,91.80
2022-08-29T12:40:19.556Z,92.10
2022-08-29T12:43:06.967Z,91.90
2022-08-29T12:45:36.386Z,92.00
2022-08-29T12:48:09.821Z,92.00
2022-08-29T12:50:43.995Z,92.10
2022-08-29T12:53:20.099Z,92.10
2022-08-29T12:55:51.450Z,92.20
2022-08-29T12:58:32.059Z,92.20
2022-08-29T13:00:59.824Z,92.20
2022-08-29T13:03:28.346Z,92.10
2022-08-29T13:06:04.729Z,92.20
2022-08-29T13:08:38.282Z,92.20
2022-08-29T13:11:08.621Z,92.20
2022-08-29T13:13:36.905Z,92.20
2022-08-29T13:16:06.337Z,92.40
2022-08-29T13:18:48.829Z,92.40
2022-08-29T13:21:25.336Z,92.40
2022-08-29T13:24:01.708Z,92.60
2022-08-29T13:26:32.821Z,92.50
2022-08-29T13:29:11.739Z,92.60
2022-08-29T13:31:40.888Z,92.70
2022-08-29T13:34:14.775Z,92.70
2022-08-29T13:36:47.459Z,92.80
2022-08-29T13:39:27.367Z,92.80
2022-08-29T13:42:14.974Z,92.90
2022-08-29T13:45:02.835Z,92.80
2022-08-29T13:47:32.450Z,92.90
2022-08-29T13:50:06.746Z,93.00
2022-08-29T13:52:34.496Z,93.00
2022-08-29T13:55:03.036Z,93.20
2022-08-29T13:57:32.862Z,93.20
2022-08-29T14:00:01.921Z,93.20
2022-08-29T14:02:30.804Z,93.30
2022-08-29T14:04:58.935Z,93.30
2022-08-29T14:07:29.015Z,93.30
2022-08-29T14:09:56.853Z,93.50
2022-08-29T14:12:32.865Z,93.70
2022-08-29T14:15:08.113Z,93.50
2022-08-29T14:17:37.729Z,93.40
2022-08-29T14:20:07.414Z,93.60
2022-08-29T14:22:35.987Z,93.70
2022-08-29T14:25:04.142Z,93.80
2022-08-29T14:27:32.754Z,94.20
2022-08-29T14:30:00.924Z,93.80
2022-08-29T14:32:28.609Z,94.10
2022-08-29T14:34:56.337Z,94.20
2022-08-29T14:37:24.419Z,94.40
2022-08-29T14:39:53.397Z,94.40
2022-08-29T14:42:21.950Z,94.20
2022-08-29T14:44:50.756Z,94.40
2022-08-29T14:47:18.544Z,94.80
2022-08-29T14:49:46.281Z,94.60
2022-08-29T14:52:15.390Z,94.50
2022-08-29T14:54:43.816Z,94.70
2022-08-29T14:57:12.434Z,94.70
2022-08-29T14:59:41.306Z,94.80
2022-08-29T15:02:10.568Z,95.00
2022-08-29T15:04:39.178Z,94.80
2022-08-29T15:07:07.771Z,95.00
2022-08-29T15:09:35.580Z,95.30
2022-08-29T15:12:03.410Z,95.10
2022-08-29T15:14:31.086Z,95.10
2022-08-29T15:16:59.308Z,95.10
2022-08-29T15:22:15.061Z,95.30
2022-08-29T15:24:43.906Z,95.30
2022-08-29T15:27:12.528Z,95.40
2022-08-29T15:29:44.433Z,95.60
2022-08-29T15:32:13.453Z,95.40
2022-08-29T15:34:41.650Z,95.70
2022-08-29T15:37:10.625Z,95.80
2022-08-29T15:39:38.833Z,95.90
2022-08-29T15:42:08.903Z,96.00
2022-08-29T15:44:37.524Z,95.70
2022-08-29T15:47:06.277Z,95.80
2022-08-29T15:49:39.051Z,95.70
2022-08-29T15:52:07.002Z,95.90
2022-08-29T15:54:36.982Z,95.90
2022-08-29T15:57:05.198Z,95.80
2022-08-29T15:59:56.445Z,95.70
2022-08-29T16:02:20.636Z,95.50
2022-08-29T16:04:52.638Z,95.50
2022-08-29T16:07:29.131Z,95.70
2022-08-29T16:10:02.045Z,95.50
2022-08-29T16:12:32.137Z,95.70
2022-08-29T16:15:01.287Z,96.00
2022-08-29T16:17:32.273Z,96.10
2022-08-29T16:20:01.656Z,96.20
2022-08-29T16:22:30.446Z,96.20
2022-08-29T16:24:58.763Z,96.30
2022-08-29T16:27:26.516Z,96.50
2022-08-29T16:29:54.457Z,96.50
2022-08-29T16:32:22.267Z,96.70
2022-08-29T16:34:50.056Z,96.50
2022-08-29T16:37:18.059Z,96.40
2022-08-29T16:39:46.399Z,96.60
2022-08-29T16:42:15.441Z,96.90
2022-08-29T16:44:43.566Z,97.10
2022-08-29T16:47:11.595Z,96.80
2022-08-29T16:49:39.304Z,97.10
2022-08-29T16:52:10.910Z,96.90
2022-08-29T16:54:38.781Z,97.00
2022-08-29T16:57:06.484Z,97.20
2022-08-29T16:59:37.294Z,96.70
2022-08-29T17:02:06.515Z,96.90
2022-08-29T17:04:34.732Z,96.60
2022-08-29T17:07:03.471Z,96.80
2022-08-29T17:09:31.174Z,97.20
2022-08-29T17:11:59.229Z,97.20
2022-08-29T17:14:30.251Z,97.00
2022-08-29T17:16:58.063Z,97.10
2022-08-29T17:19:26.240Z,97.00
2022-08-29T17:21:54.510Z,97.20
2022-08-29T17:24:24.889Z,96.80
2022-08-29T17:26:53.257Z,97.00
2022-08-29T17:29:24.972Z,97.20
2022-08-29T17:31:55.677Z,97.50
2022-08-29T17:34:24.101Z,97.40
2022-08-29T17:36:52.028Z,97.80
2022-08-29T17:39:21.514Z,97.90
2022-08-29T17:41:52.715Z,97.90
2022-08-29T17:44:21.383Z,97.80
2022-08-29T17:46:49.064Z,97.80
2022-08-29T17:49:17.472Z,97.50
2022-08-29T17:51:53.394Z,97.50
2022-08-29T17:54:22.331Z,97.40
2022-08-29T17:56:51.712Z,97.50
2022-08-29T17:59:20.254Z,97.50
2022-08-29T18:01:49.562Z,97.90
2022-08-29T18:04:18.668Z,97.80
2022-08-29T18:06:47.311Z,98.20
2022-08-29T18:09:16.311Z,98.10
2022-08-29T18:11:45.589Z,98.10
2022-08-29T18:14:13.496Z,98.30
2022-08-29T18:16:42.231Z,98.20
2022-08-29T18:19:10.871Z,98.30
2022-08-29T18:21:38.840Z,98.40
2022-08-29T18:24:13.965Z,98.30
2022-08-29T18:26:45.723Z,98.40
2022-08-29T18:29:13.866Z,98.50
2022-08-29T18:31:42.531Z,98.90
2022-08-29T18:34:11.766Z,98.60
2022-08-29T18:36:40.719Z,98.60
2022-08-29T18:39:08.860Z,98.70
2022-08-29T18:41:37.380Z,99.00
2022-08-29T18:44:05.658Z,99.20
2022-08-29T18:46:34.350Z,98.90
2022-08-29T18:49:02.604Z,99.20
2022-08-29T18:51:32.361Z,99.00
2022-08-29T18:54:01.225Z,98.90
2022-08-29T18:56:29.943Z,99.30
2022-08-29T18:58:58.594Z,99.40
2022-08-29T19:01:28.787Z,99.10
2022-08-29T19:03:58.338Z,98.50
2022-08-29T19:06:26.775Z,98.70
2022-08-29T19:08:56.024Z,98.70
2022-08-29T19:11:24.579Z,98.80
2022-08-29T19:13:54.024Z,98.90
2022-08-29T19:16:22.812Z,99.20
2022-08-29T19:18:52.014Z,99.20
2022-08-29T19:21:19.910Z,99.50
2022-08-29T19:23:52.352Z,99.20
2022-08-29T19:26:38.340Z,99.20
2022-08-29T19:29:09.757Z,98.70
2022-08-29T19:31:46.972Z,98.80
2022-08-29T19:34:14.801Z,99.20
2022-08-29T19:36:46.887Z,99.30
2022-08-29T19:39:19.334Z,98.90
2022-08-29T19:41:47.099Z,99.10
2022-08-29T19:44:15.442Z,99.10
2022-08-29T19:46:46.088Z,99.30
2022-08-29T19:49:17.051Z,99.50
2022-08-29T19:51:45.079Z,99.80
2022-08-29T19:54:12.758Z,99.50
2022-08-29T19:56:41.371Z,99.10
2022-08-29T19:59:15.212Z,99.30
2022-08-29T20:01:45.685Z,99.50
2022-08-29T20:04:13.809Z,99.20
2022-08-29T20:06:41.766Z,98.80
2022-08-29T20:09:12.155Z,98.90
2022-08-29T20:11:43.909Z,98.90
2022-08-29T20:14:11.835Z,99.00
2022-08-29T20:16:42.223Z,98.90
2022-08-29T20:19:11.968Z,99.20
2022-08-29T20:21:41.326Z,99.20
2022-08-29T20:24:09.545Z,99.30
2022-08-29T20:26:44.427Z,99.60
2022-08-29T20:29:13.805Z,99.70
2022-08-29T20:31:42.474Z,99.30
2022-08-29T20:34:11.932Z,99.60
2022-08-29T20:36:53.665Z,99.80
2022-08-29T20:39:26.125Z,99.70
2022-08-29T20:41:58.716Z,99.80
2022-08-29T20:44:33.005Z,99.70
2022-08-29T20:47:01.787Z,99.90
2022-08-29T20:49:29.619Z,99.90
2022-08-29T20:52:02.798Z,99.90
2022-08-29T20:54:34.700Z,99.60
2022-08-29T20:57:04.139Z,99.70
2022-08-29T20:59:55.577Z,99.90
2022-08-29T21:02:24.177Z,99.40
2022-08-29T21:05:04.993Z,99.30
2022-08-29T21:07:34.783Z,99.30
2022-08-29T21:10:02.612Z,99.80
2022-08-29T21:12:30.775Z,99.50
2022-08-29T21:14:58.600Z,99.50
2022-08-29T21:17:26.338Z,99.50
2022-08-29T21:19:54.924Z,99.80
2022-08-29T21:22:25.066Z,99.90
2022-08-29T21:24:55.510Z,99.90
2022-08-29T21:27:24.643Z,99.90
2022-08-29T21:29:55.407Z,99.80
2022-08-29T21:32:23.101Z,99.40
2022-08-29T21:34:51.742Z,99.50
2022-08-29T21:37:19.566Z,99.90
2022-08-29T21:39:48.989Z,99.90
2022-08-29T21:42:17.170Z,99.90
2022-08-29T21:44:45.778Z,99.90
2022-08-29T21:47:17.630Z,99.90
2022-08-29T21:49:45.636Z,99.50
2022-08-29T21:52:13.455Z,99.40
2022-08-29T21:54:41.207Z,99.60
2022-08-29T21:57:17.988Z,99.80
2022-08-29T21:59:46.573Z,99.80
2022-08-29T22:02:17.886Z,99.80
2022-08-29T22:04:45.601Z,99.80
2022-08-29T22:07:13.783Z,99.80
2022-08-29T22:09:42.932Z,99.90
2022-08-29T22:12:10.632Z,99.60
2022-08-29T22:14:50.571Z,99.50
2022-08-29T22:17:19.178Z,99.70
2022-08-29T22:19:48.694Z,99.90
2022-08-29T22:22:16.652Z,99.90
2022-08-29T22:24:44.352Z,99.80
2022-08-29T22:27:12.013Z,99.60
2022-08-29T22:29:39.814Z,99.90
2022-08-29T22:32:07.572Z,99.90
2022-08-29T22:34:35.541Z,99.90
2022-08-29T22:37:04.257Z,99.90
2022-08-29T22:39:32.256Z,99.90
2022-08-29T22:41:59.990Z,99.90
2022-08-29T22:45:02.884Z,99.90
2022-08-29T22:47:16.778Z,99.90
2022-08-29T22:49:45.433Z,99.90
2022-08-29T22:52:13.207Z,99.90
2022-08-29T22:54:40.983Z,99.90
2022-08-29T22:57:10.695Z,99.90
2022-08-29T22:59:39.303Z,99.90
2022-08-29T23:02:07.625Z,99.90
2022-08-29T23:04:36.702Z,99.90
2022-08-29T23:07:05.663Z,99.90
2022-08-29T23:09:35.047Z,99.90
2022-08-29T23:12:05.791Z,99.90
2022-08-29T23:14:36.171Z,99.90
2022-08-29T23:17:08.066Z,99.90
2022-08-29T23:19:36.590Z,99.90
2022-08-29T23:22:06.496Z,99.90
2022-08-29T23:24:34.487Z,99.90
2022-08-29T23:27:02.248Z,99.90
2022-08-29T23:29:32.975Z,99.90
2022-08-29T23:32:01.635Z,99.90
2022-08-29T23:34:30.978Z,99.90
2022-08-29T23:36:58.940Z,99.90
2022-08-29T23:39:26.711Z,99.90
2022-08-29T23:41:54.983Z,99.90
2022-08-29T23:44:22.610Z,99.90
2022-08-29T23:46:50.322Z,99.90
2022-08-29T23:49:18.410Z,99.90
2022-08-29T23:51:46.162Z,99.90
2022-08-29T23:54:14.692Z,99.90
2022-08-29T23:56:43.355Z,99.90
2022-08-29T23:59:30.731Z,99.90
